createdAt,value
2022-12-15T00:01:56.804Z,20.5
2022-12-15T00:06:00.257Z,20.8
2022-12-15T00:08:01.941Z,22.1
2022-12-15T00:10:03.653Z,17.6
2022-12-15T00:16:12.085Z,24.1
2022-12-15T00:18:13.767Z,22.6
2022-12-15T00:19:16.237Z,22.8
2022-12-15T00:21:17.948Z,23.4
2022-12-15T00:23:19.656Z,29.7
2022-12-15T00:25:21.346Z,20.6
2022-12-15T00:27:26.317Z,25.8
2022-12-15T00:29:28.008Z,22.5
2022-12-15T00:31:29.785Z,19.2
2022-12-15T00:33:31.795Z,16
2022-12-15T00:35:33.154Z,20.1
2022-12-15T00:37:34.851Z,21.5
2022-12-15T00:39:36.579Z,15.9
2022-12-15T00:41:41.504Z,19.4
2022-12-15T00:43:43.203Z,21.8
2022-12-15T00:45:44.916Z,22.7
2022-12-15T00:47:46.639Z,19.6
2022-12-15T00:49:48.340Z,19.1
2022-12-15T00:51:50.044Z,21.5
2022-12-15T00:53:51.776Z,25.3
2022-12-15T00:55:56.703Z,23.3
2022-12-15T00:57:58.420Z,22.1
2022-12-15T01:00:00.180Z,22.8
2022-12-15T01:02:01.927Z,21.8
2022-12-15T01:04:03.632Z,21.1
2022-12-15T01:06:05.250Z,21.1
2022-12-15T01:08:06.953Z,24.8
2022-12-15T01:10:11.888Z,19.6
2022-12-15T01:12:13.644Z,22.3
2022-12-15T01:14:15.337Z,29.2
2022-12-15T01:16:44.332Z,28.5
2022-12-15T01:18:49.600Z,23.1
2022-12-15T01:20:47.696Z,22.8
2022-12-15T01:22:52.647Z,26.3
2022-12-15T01:24:54.367Z,30.4
2022-12-15T01:26:56.075Z,29.6
2022-12-15T01:28:57.808Z,30.9
2022-12-15T01:30:59.569Z,26.6
2022-12-15T01:33:01.216Z,21.9
2022-12-15T01:35:02.945Z,28.9
2022-12-15T01:37:07.865Z,28.2
2022-12-15T01:39:09.596Z,21.8
2022-12-15T01:41:11.307Z,23.8
2022-12-15T01:43:13.019Z,22.8
2022-12-15T01:45:14.728Z,31.9
2022-12-15T01:47:16.497Z,35
2022-12-15T01:51:23.098Z,28.4
2022-12-15T01:53:24.818Z,22.8
2022-12-15T01:55:26.507Z,21.2
2022-12-15T01:59:29.900Z,28
2022-12-15T02:03:33.707Z,22.2
2022-12-15T02:05:38.231Z,32.8
2022-12-15T02:07:39.978Z,20.8
2022-12-15T02:09:41.632Z,20.9
2022-12-15T02:10:44.111Z,25.5
2022-12-15T02:12:45.807Z,26.9
2022-12-15T02:14:47.509Z,28.1
2022-12-15T02:16:49.274Z,17.7
2022-12-15T02:18:54.130Z,32
2022-12-15T02:20:55.871Z,31.6
2022-12-15T02:22:57.557Z,27.1
2022-12-15T02:24:59.264Z,40.1
2022-12-15T02:27:00.940Z,32.1
2022-12-15T02:31:04.399Z,27.1
2022-12-15T02:33:09.293Z,30.3
2022-12-15T02:35:11.012Z,25.7
2022-12-15T02:37:12.705Z,28.4
2022-12-15T02:39:14.388Z,25
2022-12-15T02:41:16.111Z,30.5
2022-12-15T02:43:17.805Z,27
2022-12-15T02:45:19.499Z,34.4
2022-12-15T02:47:24.421Z,36.6
2022-12-15T02:49:26.145Z,34.4
2022-12-15T02:51:27.852Z,30.1
2022-12-15T02:53:30.044Z,26.1
2022-12-15T02:55:31.284Z,25.3
2022-12-15T02:57:32.968Z,32.2
2022-12-15T02:59:34.672Z,26.4
2022-12-15T03:01:39.760Z,38.2
2022-12-15T03:03:41.381Z,34.6
2022-12-15T03:05:43.018Z,25.4
2022-12-15T03:06:45.492Z,30.6
2022-12-15T03:08:47.200Z,34.8
2022-12-15T03:10:48.895Z,35.5
2022-12-15T03:14:55.515Z,22.3
2022-12-15T03:16:57.252Z,45.6
2022-12-15T03:18:58.957Z,24
2022-12-15T03:25:04.041Z,27.4
2022-12-15T03:27:05.786Z,27.9
2022-12-15T03:29:10.694Z,29.1
2022-12-15T03:31:12.369Z,35.3
2022-12-15T03:33:14.082Z,27.7
2022-12-15T03:35:15.781Z,28.4
2022-12-15T03:37:17.483Z,29.2
2022-12-15T03:39:19.218Z,30.8
2022-12-15T03:41:20.904Z,30.4
2022-12-15T03:43:25.819Z,42.3
2022-12-15T03:45:27.579Z,31.2
2022-12-15T03:47:29.258Z,27.1
2022-12-15T03:49:30.950Z,37.7
2022-12-15T03:51:32.656Z,27.9
2022-12-15T03:53:34.520Z,30.9
2022-12-15T03:55:36.047Z,42.9
2022-12-15T03:57:40.986Z,28.8
2022-12-15T03:59:42.738Z,36.2
2022-12-15T04:01:44.470Z,32.1
2022-12-15T04:04:48.549Z,28.6
2022-12-15T04:08:52.007Z,25.4
2022-12-15T04:10:56.963Z,31.5
2022-12-15T04:12:58.673Z,32.3
2022-12-15T04:15:00.355Z,34.9
2022-12-15T04:17:02.143Z,31.9
2022-12-15T04:19:03.769Z,27.8
2022-12-15T04:21:05.474Z,35.2
2022-12-15T04:25:12.134Z,29.8
2022-12-15T04:27:13.824Z,32.7
2022-12-15T04:29:15.514Z,25.6
2022-12-15T04:31:17.283Z,34.1
2022-12-15T04:33:18.900Z,42.8
2022-12-15T04:35:20.667Z,37.5
2022-12-15T04:37:22.308Z,35.3
2022-12-15T04:39:27.255Z,32
2022-12-15T04:41:28.955Z,37.3
2022-12-15T04:43:30.874Z,32.5
2022-12-15T04:45:32.331Z,40.5
2022-12-15T04:47:34.047Z,23.7
2022-12-15T04:49:35.754Z,39.8
2022-12-15T04:51:37.405Z,32.7
2022-12-15T04:53:43.903Z,43
2022-12-15T04:55:45.569Z,39.5
2022-12-15T04:57:47.270Z,36
2022-12-15T05:00:16.182Z,39.7
2022-12-15T05:02:17.943Z,31.7
2022-12-15T05:04:19.603Z,37.3
2022-12-15T05:06:24.620Z,36.4
2022-12-15T05:08:26.318Z,33.4
2022-12-15T05:10:28.015Z,35.6
2022-12-15T05:12:29.701Z,34
2022-12-15T05:14:31.396Z,30.5
2022-12-15T05:16:33.105Z,27.6
2022-12-15T05:18:34.807Z,31.8
2022-12-15T05:20:39.741Z,31.6
2022-12-15T05:22:41.423Z,40.7
2022-12-15T05:24:43.163Z,34.3
2022-12-15T05:26:49.249Z,31.8
2022-12-15T05:28:46.566Z,35.8
2022-12-15T05:30:48.373Z,36.7
2022-12-15T05:32:50.061Z,36.2
2022-12-15T05:38:58.388Z,37.3
2022-12-15T05:41:00.121Z,25.3
2022-12-15T05:49:10.119Z,32.9
2022-12-15T05:54:16.007Z,37.7
2022-12-15T05:56:17.726Z,52.2
2022-12-15T05:58:19.417Z,25.9
2022-12-15T06:00:21.109Z,38.5
2022-12-15T06:02:26.229Z,41.7
2022-12-15T06:04:27.792Z,32.5
2022-12-15T06:06:29.475Z,40.2
2022-12-15T06:08:31.175Z,28.3
2022-12-15T06:10:32.873Z,41.5
2022-12-15T06:12:34.588Z,33.4
2022-12-15T06:14:36.301Z,40.8
2022-12-15T06:16:50.485Z,37.3
2022-12-15T06:18:42.974Z,38.5
2022-12-15T06:20:44.663Z,37.7
2022-12-15T06:22:49.890Z,29.8
2022-12-15T06:24:48.109Z,35.2
2022-12-15T06:26:50.132Z,35.1
2022-12-15T06:28:51.516Z,37.4
2022-12-15T06:30:56.543Z,33.7
2022-12-15T06:32:58.194Z,35.2
2022-12-15T06:34:59.925Z,40
2022-12-15T06:37:01.600Z,36.5
2022-12-15T06:39:03.335Z,37
2022-12-15T06:41:05.021Z,38
2022-12-15T06:43:06.740Z,32.7
2022-12-15T06:45:11.712Z,32.8
2022-12-15T06:47:13.469Z,36
2022-12-15T06:50:17.579Z,35.8
2022-12-15T06:52:19.312Z,37.1
2022-12-15T06:54:21.011Z,53.2
2022-12-15T06:56:27.227Z,30.2
2022-12-15T06:58:27.665Z,38.8
2022-12-15T07:00:29.407Z,45.5
2022-12-15T07:02:31.302Z,34.7
2022-12-15T07:04:32.771Z,36.4
2022-12-15T07:06:34.485Z,59.1
2022-12-15T07:08:41.301Z,42.2
2022-12-15T07:10:37.892Z,34
2022-12-15T07:12:42.832Z,31.9
2022-12-15T07:14:47.519Z,35
2022-12-15T07:16:46.362Z,40.9
2022-12-15T07:18:47.916Z,40.3
2022-12-15T07:20:49.825Z,44.5
2022-12-15T07:22:51.316Z,29.8
2022-12-15T07:24:53.007Z,41.8
2022-12-15T07:26:57.932Z,53
2022-12-15T07:28:59.662Z,35.8
2022-12-15T07:31:01.363Z,37.9
2022-12-15T07:33:03.035Z,34.9
2022-12-15T07:35:04.721Z,36.5
2022-12-15T07:37:06.438Z,35.5
2022-12-15T07:39:09.157Z,40
2022-12-15T07:41:13.081Z,31.8
2022-12-15T07:43:14.913Z,40
2022-12-15T07:45:16.479Z,40.9
2022-12-15T07:46:19.110Z,55.4
2022-12-15T07:48:20.654Z,40.4
2022-12-15T07:50:22.329Z,36.3
2022-12-15T07:52:24.046Z,40
2022-12-15T07:54:28.987Z,44.4
2022-12-15T07:56:34.478Z,38.3
2022-12-15T07:58:32.386Z,35.7
2022-12-15T08:00:34.100Z,50.3
2022-12-15T08:02:35.951Z,47.7
2022-12-15T08:04:37.488Z,38.4
2022-12-15T08:06:39.239Z,40.3
2022-12-15T08:08:44.159Z,46.3
2022-12-15T08:10:45.879Z,35.3
2022-12-15T08:16:51.039Z,42.6
2022-12-15T08:18:52.714Z,54.8
2022-12-15T08:20:54.397Z,37.1
2022-12-15T08:22:59.337Z,55.3
2022-12-15T08:25:01.066Z,42.6
2022-12-15T08:27:02.789Z,45.6
2022-12-15T08:33:07.960Z,48
2022-12-15T08:35:31.798Z,55.7
2022-12-15T08:37:14.684Z,49.1
2022-12-15T08:43:49.001Z,57.2
2022-12-15T08:45:49.106Z,57.1
2022-12-15T08:47:50.679Z,49.7
2022-12-15T08:49:55.725Z,50.3
2022-12-15T08:51:57.512Z,46.2
2022-12-15T08:53:59.375Z,44.6
2022-12-15T08:56:01.206Z,36.8
2022-12-15T08:58:03.044Z,33.1
2022-12-15T09:00:04.905Z,37.5
2022-12-15T09:02:06.970Z,28.5
2022-12-15T09:04:11.916Z,25.2
2022-12-15T09:06:13.693Z,27.1
2022-12-15T09:08:15.564Z,32
2022-12-15T09:10:17.424Z,24.4
2022-12-15T09:12:19.358Z,20.8
2022-12-15T09:14:27.295Z,21.2
2022-12-15T09:16:23.275Z,29.5
2022-12-15T09:20:30.193Z,22.1
2022-12-15T09:22:32.104Z,27.2
2022-12-15T09:24:35.306Z,17.3
2022-12-15T09:30:39.944Z,23.7
2022-12-15T09:34:46.849Z,19.9
2022-12-15T09:37:52.020Z,19.1
2022-12-15T09:39:53.275Z,18.4
2022-12-15T09:41:55.202Z,22.3
2022-12-15T09:43:57.496Z,27.8
2022-12-15T09:46:02.295Z,18.2
2022-12-15T09:48:04.189Z,18.6
2022-12-15T09:50:06.136Z,21.9
2022-12-15T09:52:11.255Z,21.6
2022-12-15T09:54:09.982Z,20.6
2022-12-15T09:56:11.883Z,18
2022-12-15T09:58:13.809Z,19.9
2022-12-15T10:00:18.951Z,22.6
2022-12-15T10:02:21.013Z,18
2022-12-15T10:04:22.869Z,18.8
2022-12-15T10:06:31.338Z,17.4
2022-12-15T10:08:26.636Z,27.2
2022-12-15T10:10:28.547Z,18.9
2022-12-15T10:12:30.443Z,18.6
2022-12-15T10:14:35.583Z,16.7
2022-12-15T10:16:37.467Z,20.6
2022-12-15T10:18:39.392Z,22.4
2022-12-15T10:20:41.264Z,19.1
2022-12-15T10:22:43.174Z,17.5
2022-12-15T10:25:09.249Z,28.2
2022-12-15T10:26:46.958Z,26.4
2022-12-15T10:28:52.125Z,33.3
2022-12-15T10:30:54.060Z,23.4
2022-12-15T10:32:55.876Z,19.8
2022-12-15T10:33:58.415Z,27.2
2022-12-15T10:36:00.315Z,23.5
2022-12-15T10:40:04.118Z,19.7
2022-12-15T10:42:09.341Z,18.8
2022-12-15T10:44:12.743Z,22.1
2022-12-15T10:46:14.709Z,18.6
2022-12-15T10:48:16.572Z,22.1
2022-12-15T10:52:20.501Z,22.9
2022-12-15T10:54:22.435Z,20.8
2022-12-15T10:56:32.791Z,15.9
2022-12-15T10:58:29.581Z,21
2022-12-15T11:00:31.557Z,20.4
2022-12-15T11:02:33.744Z,28.3
2022-12-15T11:04:35.515Z,20.1
2022-12-15T11:06:37.464Z,20.5
2022-12-15T11:08:39.417Z,20.9
2022-12-15T11:10:44.624Z,23.5
2022-12-15T11:12:46.604Z,18.6
2022-12-15T11:16:50.542Z,18.9
2022-12-15T11:18:52.459Z,15.6
2022-12-15T11:20:54.431Z,21.6
2022-12-15T11:22:56.409Z,16.7
2022-12-15T11:25:01.610Z,41.6
2022-12-15T11:27:03.571Z,21.3
2022-12-15T11:29:05.578Z,20.3
2022-12-15T11:32:10.161Z,16.1
2022-12-15T11:34:12.151Z,20.2
2022-12-15T11:36:14.121Z,28
2022-12-15T11:38:19.363Z,19.1
2022-12-15T11:40:21.322Z,17.7
2022-12-15T11:42:23.307Z,19
2022-12-15T11:44:25.280Z,15.2
2022-12-15T11:46:27.243Z,14
2022-12-15T11:48:29.259Z,21.4
2022-12-15T11:50:31.269Z,19.6
2022-12-15T11:52:36.460Z,17
2022-12-15T11:54:38.466Z,17.9
2022-12-15T11:56:40.465Z,17.4
2022-12-15T11:58:42.408Z,16.2
2022-12-15T12:00:44.388Z,21.7
2022-12-15T12:02:47.493Z,20.9
2022-12-15T12:04:48.340Z,25.3
2022-12-15T12:06:53.547Z,15.7
2022-12-15T12:08:55.526Z,16.2
2022-12-15T12:10:57.499Z,16.4
2022-12-15T12:12:59.445Z,25.1
2022-12-15T12:15:01.424Z,18.2
2022-12-15T12:17:03.410Z,17.3
2022-12-15T12:19:05.446Z,14.4
2022-12-15T12:21:10.575Z,16.2
2022-12-15T12:23:12.554Z,16.7
2022-12-15T12:25:14.506Z,18
2022-12-15T12:27:43.421Z,16.8
2022-12-15T12:29:45.366Z,15.5
2022-12-15T12:31:47.375Z,17.9
2022-12-15T12:33:52.583Z,27.1
2022-12-15T12:35:54.587Z,16.3
2022-12-15T12:38:01.158Z,15.1
2022-12-15T12:39:58.539Z,24.5
2022-12-15T12:42:00.557Z,14.9
2022-12-15T12:44:02.545Z,28.4
2022-12-15T12:46:04.518Z,20.1
2022-12-15T12:48:09.728Z,19.9
2022-12-15T12:50:11.677Z,17.1
2022-12-15T12:52:13.674Z,18.2
2022-12-15T12:54:15.677Z,14.1
2022-12-15T12:56:17.628Z,21.4
2022-12-15T12:58:19.579Z,19.5
2022-12-15T13:00:21.662Z,24.6
2022-12-15T13:02:26.990Z,25.1
2022-12-15T13:04:28.739Z,18.5
2022-12-15T13:08:32.616Z,20.6
2022-12-15T13:14:38.417Z,23.6
2022-12-15T13:20:50.599Z,19.4
2022-12-15T13:21:50.201Z,20.9
2022-12-15T13:23:52.012Z,20.9
2022-12-15T13:25:55.892Z,20.8
2022-12-15T13:27:55.880Z,24.6
2022-12-15T13:30:01.028Z,30.2
2022-12-15T13:32:03.037Z,29.7
2022-12-15T13:34:04.851Z,21
2022-12-15T13:36:06.780Z,27.6
2022-12-15T13:38:08.706Z,28.5
2022-12-15T13:40:10.617Z,36
2022-12-15T13:42:34.261Z,29.3
2022-12-15T13:44:17.646Z,28
2022-12-15T13:46:19.637Z,20.8
2022-12-15T13:48:21.646Z,26.8
2022-12-15T13:50:23.399Z,27
2022-12-15T13:52:38.335Z,26.4
2022-12-15T13:54:27.247Z,36.4
2022-12-15T13:56:29.134Z,24.4
2022-12-15T13:58:34.266Z,37.6
2022-12-15T14:00:36.184Z,34.6
2022-12-15T14:02:38.096Z,25.3
2022-12-15T14:04:39.994Z,30.4
2022-12-15T14:08:43.806Z,41.6
2022-12-15T14:10:45.696Z,28
2022-12-15T14:12:50.797Z,30.7
2022-12-15T14:14:52.713Z,39.5
2022-12-15T14:16:54.675Z,31.2
2022-12-15T14:17:57.168Z,29.7
2022-12-15T14:19:59.081Z,30
2022-12-15T14:22:00.976Z,30.4
2022-12-15T14:26:07.971Z,30.9
2022-12-15T14:28:12.216Z,28
2022-12-15T14:30:11.774Z,32
2022-12-15T14:32:13.711Z,33.6
2022-12-15T14:34:15.572Z,31.4
2022-12-15T14:36:17.477Z,23.4
2022-12-15T14:38:19.353Z,33.9
2022-12-15T14:40:28.705Z,35.2
2022-12-15T14:42:26.382Z,44.7
2022-12-15T14:44:36.284Z,30.6
2022-12-15T14:46:30.182Z,34.1
2022-12-15T14:48:53.531Z,36.7
2022-12-15T14:50:33.912Z,35.5
2022-12-15T14:52:35.816Z,29.2
2022-12-15T14:54:40.926Z,40.9
2022-12-15T15:00:46.581Z,31.3
2022-12-15T15:02:48.513Z,34.5
2022-12-15T15:04:50.289Z,38.9
2022-12-15T15:08:57.288Z,29.3
2022-12-15T15:10:59.167Z,42.8
2022-12-15T15:14:03.596Z,35.9
2022-12-15T15:16:05.493Z,44.8
2022-12-15T15:18:07.323Z,35.3
2022-12-15T15:20:09.205Z,38.4
2022-12-15T15:22:14.264Z,54.3
2022-12-15T15:24:16.165Z,45.8
2022-12-15T15:26:18.015Z,45.4
2022-12-15T15:28:19.868Z,48.6
2022-12-15T15:30:21.733Z,52.4
2022-12-15T15:32:23.572Z,38.9
2022-12-15T15:34:25.459Z,34.6
2022-12-15T15:36:30.515Z,35.1
2022-12-15T15:38:32.693Z,30.9
2022-12-15T15:40:34.216Z,39.7
2022-12-15T15:42:36.065Z,47.5
2022-12-15T15:44:37.912Z,50.4
2022-12-15T15:50:46.604Z,37.8
2022-12-15T15:52:48.462Z,45.4
2022-12-15T15:54:50.322Z,39.3
2022-12-15T16:00:55.939Z,40.7
2022-12-15T16:02:57.882Z,41.3
2022-12-15T16:05:02.752Z,42.7
2022-12-15T16:09:06.466Z,39.3
2022-12-15T16:11:35.356Z,37.4
2022-12-15T16:13:37.204Z,48.4
2022-12-15T16:15:39.104Z,48.8
2022-12-15T16:17:44.134Z,47.9
2022-12-15T16:19:45.958Z,40.4
2022-12-15T16:21:47.798Z,43.2
2022-12-15T16:23:49.640Z,41.2
2022-12-15T16:25:51.482Z,39.8
2022-12-15T16:27:53.315Z,46.8
2022-12-15T16:29:55.149Z,43.5
2022-12-15T16:32:00.419Z,46.7
2022-12-15T16:34:02.072Z,49.6
2022-12-15T16:36:05.456Z,52.2
2022-12-15T16:38:07.249Z,43.5
2022-12-15T16:40:09.087Z,39.6
2022-12-15T16:42:10.908Z,40.7
2022-12-15T16:44:12.738Z,56.5
2022-12-15T16:46:17.816Z,48.3
2022-12-15T16:48:19.676Z,47.6
2022-12-15T16:50:21.411Z,44.9
2022-12-15T16:52:23.239Z,42
2022-12-15T16:54:25.072Z,46.4
2022-12-15T16:56:26.896Z,47.2
2022-12-15T16:58:29.038Z,44.2
2022-12-15T17:00:33.785Z,53.3
2022-12-15T17:02:35.824Z,47.6
2022-12-15T17:04:37.424Z,44.1
2022-12-15T17:05:39.926Z,54
2022-12-15T17:07:41.755Z,55.7
2022-12-15T17:09:43.581Z,51.1
2022-12-15T17:11:45.403Z,52.8
2022-12-15T17:13:50.484Z,51.9
2022-12-15T17:15:52.315Z,48.7
2022-12-15T17:17:54.902Z,46.8
2022-12-15T17:20:27.856Z,52.8
2022-12-15T17:21:57.765Z,63.9
2022-12-15T17:23:59.549Z,51.8
2022-12-15T17:26:22.553Z,58.4
2022-12-15T17:28:06.379Z,53.9
2022-12-15T17:30:08.293Z,46.7
2022-12-15T17:32:10.059Z,51.4
2022-12-15T17:34:11.841Z,49.7
2022-12-15T17:36:13.645Z,55.6
2022-12-15T17:38:15.464Z,47.8
2022-12-15T17:40:17.283Z,55.9
2022-12-15T17:42:22.358Z,50.8
2022-12-15T17:44:32.895Z,50.4
2022-12-15T17:46:26.002Z,62.6
2022-12-15T17:48:27.782Z,60.5
2022-12-15T17:50:29.583Z,48.1
2022-12-15T17:52:31.395Z,45.9
2022-12-15T17:54:33.208Z,62.7
2022-12-15T17:58:40.123Z,55.5
2022-12-15T18:00:47.473Z,51.5
2022-12-15T18:01:44.521Z,52.3
2022-12-15T18:09:54.899Z,60.2
2022-12-15T18:11:56.733Z,61
2022-12-15T18:13:58.556Z,69
2022-12-15T18:16:00.431Z,52.1
2022-12-15T18:18:02.173Z,64.6
2022-12-15T18:20:03.987Z,55.6
2022-12-15T18:22:05.805Z,54.7
2022-12-15T18:26:12.649Z,67.2
2022-12-15T18:28:14.490Z,59.2
2022-12-15T18:30:16.273Z,60.3
2022-12-15T18:32:18.100Z,48.3
2022-12-15T18:34:19.875Z,53.1
2022-12-15T18:36:21.723Z,50.8
2022-12-15T18:38:26.762Z,54.6
2022-12-15T18:40:28.566Z,61.6
2022-12-15T18:42:30.381Z,62.1
2022-12-15T18:44:32.173Z,57.2
2022-12-15T18:46:34.064Z,57.2
2022-12-15T18:48:35.839Z,56.5
2022-12-15T18:50:37.644Z,65
2022-12-15T18:52:42.665Z,79.1
2022-12-15T18:54:44.470Z,72.3
2022-12-15T18:56:46.306Z,56.5
2022-12-15T18:57:48.830Z,54.4
2022-12-15T18:59:50.644Z,69.6
2022-12-15T19:01:52.575Z,64.2
2022-12-15T19:03:54.299Z,65.8
2022-12-15T19:05:59.321Z,60.3
2022-12-15T19:08:01.151Z,58.1
2022-12-15T19:10:02.948Z,57.9
2022-12-15T19:12:04.788Z,56.4
2022-12-15T19:14:06.610Z,52.7
2022-12-15T19:16:08.491Z,52.1
2022-12-15T19:18:10.272Z,56.7
2022-12-15T19:20:15.311Z,55.3
2022-12-15T19:22:17.137Z,64.2
2022-12-15T19:24:19.006Z,58.9
2022-12-15T19:26:20.788Z,62.6
2022-12-15T19:28:22.605Z,54.4
2022-12-15T19:30:24.417Z,44.9
2022-12-15T19:32:26.251Z,68.3
2022-12-15T19:34:31.303Z,54.8
2022-12-15T19:36:36.716Z,60.5
2022-12-15T19:38:34.930Z,48.4
2022-12-15T19:40:36.747Z,53.8
2022-12-15T19:42:38.559Z,50.5
2022-12-15T19:44:40.410Z,56.3
2022-12-15T19:46:42.213Z,58.3
2022-12-15T19:48:47.230Z,61.8
2022-12-15T19:50:49.066Z,59.7
2022-12-15T19:52:50.890Z,58.4
2022-12-15T19:55:19.841Z,71.4
2022-12-15T20:01:28.696Z,61.4
2022-12-15T20:03:30.792Z,60.3
2022-12-15T20:05:32.147Z,63.8
2022-12-15T20:13:39.411Z,47
2022-12-15T20:15:44.467Z,55
2022-12-15T20:17:46.278Z,50.7
2022-12-15T20:19:48.100Z,43.5
2022-12-15T20:23:51.744Z,56.5
2022-12-15T20:27:55.399Z,66.8
2022-12-15T20:32:02.400Z,61.9
2022-12-15T20:34:04.045Z,51
2022-12-15T20:36:05.871Z,44.2
2022-12-15T20:38:07.720Z,51.3
2022-12-15T20:40:09.563Z,44.2
2022-12-15T20:42:11.369Z,49.8
2022-12-15T20:44:16.421Z,53.5
2022-12-15T20:46:18.310Z,43.3
2022-12-15T20:48:20.098Z,49.1
2022-12-15T20:49:22.611Z,54.7
2022-12-15T20:51:24.419Z,49.5
2022-12-15T20:53:26.231Z,46
2022-12-15T20:55:28.096Z,41.7
2022-12-15T20:57:33.141Z,53.1
2022-12-15T20:59:34.935Z,48.4
2022-12-15T21:01:36.878Z,48.9
2022-12-15T21:03:38.698Z,42.8
2022-12-15T21:05:40.431Z,48.1
2022-12-15T21:07:42.266Z,50.8
2022-12-15T21:09:44.111Z,54.1
2022-12-15T21:11:49.152Z,59.5
2022-12-15T21:13:50.981Z,65.6
2022-12-15T21:15:52.792Z,50.6
2022-12-15T21:18:11.265Z,48
2022-12-15T21:19:56.473Z,39.1
2022-12-15T21:21:58.308Z,55.2
2022-12-15T21:24:00.130Z,41
2022-12-15T21:26:05.176Z,53.2
2022-12-15T21:28:07.005Z,41.6
2022-12-15T21:30:08.871Z,39.1
2022-12-15T21:34:12.520Z,45.7
2022-12-15T21:36:14.353Z,39
2022-12-15T21:38:16.198Z,51.7
2022-12-15T21:40:21.239Z,44
2022-12-15T21:42:23.061Z,44
2022-12-15T21:44:24.885Z,43.4
2022-12-15T21:47:29.261Z,50.4
2022-12-15T21:51:32.921Z,62.4
2022-12-15T21:53:37.965Z,52.3
2022-12-15T21:55:39.800Z,47.6
2022-12-15T21:57:41.633Z,48.5
2022-12-15T22:03:47.126Z,56.4
2022-12-15T22:07:54.010Z,52.5
2022-12-15T22:09:55.864Z,68.3
2022-12-15T22:11:57.663Z,50.5
2022-12-15T22:13:59.504Z,46.6
2022-12-15T22:16:01.412Z,55.9
2022-12-15T22:18:03.166Z,54.7
2022-12-15T22:20:04.982Z,65.7
2022-12-15T22:22:09.969Z,60.3
2022-12-15T22:24:11.849Z,57
2022-12-15T22:26:13.676Z,44.7
2022-12-15T22:28:17.044Z,48.9
2022-12-15T22:30:18.797Z,56.5
2022-12-15T22:36:27.540Z,59.2
2022-12-15T22:41:33.742Z,57.2
2022-12-15T22:43:35.593Z,49.5
2022-12-15T22:45:41.270Z,51.1
2022-12-15T22:47:39.236Z,51.9
2022-12-15T22:49:44.286Z,53.4
2022-12-15T22:51:46.141Z,53.5
2022-12-15T22:53:47.992Z,48.5
2022-12-15T22:55:49.794Z,63
2022-12-15T22:57:51.619Z,50.2
2022-12-15T22:59:53.437Z,64.1
2022-12-15T23:01:55.364Z,52.4
2022-12-15T23:04:00.304Z,57.6
2022-12-15T23:06:02.146Z,52.3
2022-12-15T23:08:03.969Z,49.4
2022-12-15T23:10:05.753Z,54.1
2022-12-15T23:12:07.567Z,42.5
2022-12-15T23:16:11.243Z,46.8
2022-12-15T23:18:16.231Z,63
2022-12-15T23:20:18.049Z,53.2
2022-12-15T23:22:19.859Z,70.7
2022-12-15T23:24:21.668Z,61
2022-12-15T23:28:25.276Z,69
2022-12-15T23:30:27.089Z,55
2022-12-15T23:34:33.953Z,72
2022-12-15T23:36:35.774Z,59.5
2022-12-15T23:41:06.540Z,67.6
2022-12-15T23:43:08.351Z,57.6
2022-12-15T23:45:13.434Z,64.4
2022-12-15T23:47:15.188Z,58.2
2022-12-15T23:49:17.023Z,51.7
2022-12-15T23:51:18.827Z,49.5
2022-12-15T23:53:20.606Z,55.8
2022-12-15T23:55:22.408Z,61.5
2022-12-15T23:57:24.260Z,60.4
2022-12-15T23:59:29.260Z,66.3
